NLK YBAF-YCFS
Flight info
| Callsign | NLK |
|---|---|
| Flight time | 1h 4m |
| Altitude | 19000 |
| Route | N0240F190 DCT ENKOG W128 HUUGO W760 IDNER W214 CFS DCT |
| Aircraft | B58T/L-SDFGRY/C |
Departure
| Time | 2026-04-24 23:16 |
|---|---|
| Airport | Brisbane Archerfield Airport (YBAF) |
Arrival
| Time | 2026-04-25 00:20 |
|---|---|
| Airport | Coffs Harbour Airport (YCFS) |
| Time | Latitude | Longitude | Altitude | Speed | Heading |
|---|---|---|---|---|---|
| 2026-04-24 23:05 | -27.57304 | 153.01190 | 37 ft | 0 kts | 101° |
| 2026-04-24 23:09 | -27.57315 | 153.01198 | 35 ft | 8 kts | 193° |
| 2026-04-24 23:09 | -27.57299 | 153.01119 | 38 ft | 10 kts | 302° |
| 2026-04-24 23:09 | -27.57309 | 153.01091 | 36 ft | 0 kts | 134° |
| 2026-04-24 23:14 | -27.57315 | 153.01098 | 36 ft | 6 kts | 135° |
| 2026-04-24 23:14 | -27.57370 | 153.01112 | 34 ft | 2 kts | 198° |
| 2026-04-24 23:15 | -27.57398 | 153.01102 | 32 ft | 11 kts | 197° |
| 2026-04-24 23:15 | -27.57419 | 153.01068 | 31 ft | 4 kts | 288° |
| 2026-04-24 23:15 | -27.57418 | 153.01066 | 31 ft | 0 kts | 287° |
| 2026-04-24 23:15 | -27.57400 | 153.00999 | 31 ft | 39 kts | 288° |
| 2026-04-24 23:16 | -27.57212 | 153.00359 | 92 ft | 119 kts | 289° |
| 2026-04-24 23:16 | -27.56883 | 152.99423 | 541 ft | 135 kts | 287° |
| 2026-04-24 23:16 | -27.56522 | 152.98379 | 949 ft | 150 kts | 284° |
| 2026-04-24 23:16 | -27.56130 | 152.97269 | 1241 ft | 160 kts | 297° |
| 2026-04-24 23:17 | -27.55542 | 152.96092 | 1389 ft | 174 kts | 286° |
| 2026-04-24 23:17 | -27.55617 | 152.94785 | 1493 ft | 171 kts | 230° |
| 2026-04-24 23:17 | -27.56557 | 152.94170 | 1549 ft | 156 kts | 181° |
| 2026-04-24 23:17 | -27.57660 | 152.94044 | 1514 ft | 162 kts | 179° |
| 2026-04-24 23:18 | -27.58786 | 152.94031 | 1503 ft | 162 kts | 173° |
| 2026-04-24 23:18 | -27.59923 | 152.94027 | 1562 ft | 163 kts | 176° |
| 2026-04-24 23:18 | -27.61013 | 152.93994 | 1800 ft | 154 kts | 176° |
| 2026-04-24 23:18 | -27.62066 | 152.93965 | 2045 ft | 150 kts | 175° |
| 2026-04-24 23:19 | -27.63103 | 152.93933 | 2355 ft | 147 kts | 175° |
| 2026-04-24 23:19 | -27.64117 | 152.93900 | 2712 ft | 146 kts | 173° |
| 2026-04-24 23:19 | -27.65139 | 152.93868 | 3061 ft | 148 kts | 175° |
| 2026-04-24 23:19 | -27.66167 | 152.93806 | 3434 ft | 146 kts | 173° |
| 2026-04-24 23:20 | -27.67171 | 152.93812 | 3833 ft | 143 kts | 173° |
| 2026-04-24 23:20 | -27.68167 | 152.93777 | 4265 ft | 143 kts | 173° |
| 2026-04-24 23:20 | -27.69157 | 152.93737 | 4689 ft | 141 kts | 173° |
| 2026-04-24 23:20 | -27.70123 | 152.93711 | 5104 ft | 140 kts | 171° |
| 2026-04-24 23:21 | -27.71094 | 152.93687 | 5519 ft | 140 kts | 172° |
| 2026-04-24 23:21 | -27.72076 | 152.93655 | 5940 ft | 141 kts | 172° |
| 2026-04-24 23:21 | -27.73054 | 152.93622 | 6368 ft | 141 kts | 172° |
| 2026-04-24 23:21 | -27.74037 | 152.93589 | 6796 ft | 142 kts | 171° |
| 2026-04-24 23:22 | -27.75032 | 152.93556 | 7197 ft | 145 kts | 171° |
| 2026-04-24 23:22 | -27.76038 | 152.93524 | 7609 ft | 144 kts | 171° |
| 2026-04-24 23:22 | -27.77042 | 152.93497 | 8029 ft | 144 kts | 171° |
| 2026-04-24 23:22 | -27.78047 | 152.93465 | 8448 ft | 145 kts | 171° |
| 2026-04-24 23:23 | -27.79061 | 152.93432 | 8871 ft | 146 kts | 171° |
| 2026-04-24 23:23 | -27.80080 | 152.93399 | 9304 ft | 146 kts | 171° |
| 2026-04-24 23:23 | -27.81088 | 152.93366 | 9742 ft | 145 kts | 171° |
| 2026-04-24 23:23 | -27.82096 | 152.93334 | 10179 ft | 145 kts | 171° |
| 2026-04-24 23:24 | -27.83105 | 152.93302 | 10582 ft | 145 kts | 171° |
| 2026-04-24 23:24 | -27.84113 | 152.93270 | 10983 ft | 145 kts | 171° |
| 2026-04-24 23:24 | -27.85134 | 152.93239 | 11354 ft | 148 kts | 172° |
| 2026-04-24 23:24 | -27.86174 | 152.93206 | 11721 ft | 151 kts | 172° |
| 2026-04-24 23:25 | -27.87233 | 152.93172 | 12099 ft | 153 kts | 173° |
| 2026-04-24 23:25 | -27.88313 | 152.93139 | 12480 ft | 157 kts | 173° |
| 2026-04-24 23:25 | -27.89413 | 152.93104 | 12864 ft | 160 kts | 173° |
| 2026-04-24 23:25 | -27.90528 | 152.93067 | 13258 ft | 161 kts | 173° |
| 2026-04-24 23:26 | -27.91644 | 152.93031 | 13645 ft | 160 kts | 173° |
| 2026-04-24 23:26 | -27.92760 | 152.92996 | 14040 ft | 160 kts | 174° |
| 2026-04-24 23:26 | -27.93865 | 152.92961 | 14397 ft | 161 kts | 174° |
| 2026-04-24 23:26 | -27.94983 | 152.92924 | 14746 ft | 159 kts | 174° |
| 2026-04-24 23:27 | -27.96096 | 152.92890 | 15092 ft | 161 kts | 174° |
| 2026-04-24 23:27 | -27.97226 | 152.92854 | 15430 ft | 163 kts | 175° |
| 2026-04-24 23:27 | -27.98369 | 152.92818 | 15773 ft | 165 kts | 175° |
| 2026-04-24 23:27 | -27.99524 | 152.92781 | 16120 ft | 166 kts | 175° |
| 2026-04-24 23:28 | -28.00686 | 152.92745 | 16470 ft | 168 kts | 176° |
| 2026-04-24 23:28 | -28.01855 | 152.92707 | 16824 ft | 168 kts | 176° |
| 2026-04-24 23:28 | -28.03030 | 152.92669 | 17184 ft | 169 kts | 175° |
| 2026-04-24 23:28 | -28.04208 | 152.92632 | 17545 ft | 170 kts | 176° |
| 2026-04-24 23:29 | -28.05392 | 152.92594 | 17914 ft | 170 kts | 177° |
| 2026-04-24 23:29 | -28.06583 | 152.92556 | 18282 ft | 172 kts | 176° |
| 2026-04-24 23:29 | -28.07781 | 152.92518 | 18654 ft | 172 kts | 178° |
| 2026-04-24 23:29 | -28.08964 | 152.92487 | 18977 ft | 172 kts | 173° |
| 2026-04-24 23:30 | -28.10200 | 152.92656 | 19034 ft | 186 kts | 168° |
| 2026-04-24 23:30 | -28.11529 | 152.92881 | 19041 ft | 199 kts | 168° |
| 2026-04-24 23:30 | -28.12934 | 152.93100 | 19051 ft | 208 kts | 169° |
| 2026-04-24 23:30 | -28.14390 | 152.93323 | 19049 ft | 212 kts | 169° |
| 2026-04-24 23:31 | -28.15854 | 152.93549 | 19043 ft | 212 kts | 168° |
| 2026-04-24 23:31 | -28.17327 | 152.93779 | 19046 ft | 214 kts | 169° |
| 2026-04-24 23:31 | -28.18797 | 152.94008 | 19048 ft | 214 kts | 168° |
| 2026-04-24 23:31 | -28.20253 | 152.94236 | 19049 ft | 213 kts | 168° |
| 2026-04-24 23:32 | -28.21728 | 152.94467 | 19047 ft | 214 kts | 168° |
| 2026-04-24 23:32 | -28.23197 | 152.94696 | 19053 ft | 213 kts | 169° |
| 2026-04-24 23:32 | -28.24670 | 152.94926 | 19052 ft | 213 kts | 169° |
| 2026-04-24 23:32 | -28.26146 | 152.95157 | 19053 ft | 214 kts | 169° |
| 2026-04-24 23:33 | -28.27623 | 152.95388 | 19053 ft | 214 kts | 168° |
| 2026-04-24 23:33 | -28.28599 | 152.95541 | 19055 ft | 214 kts | 168° |
| 2026-04-24 23:33 | -28.30570 | 152.95847 | 19056 ft | 214 kts | 169° |
| 2026-04-24 23:33 | -28.32046 | 152.96079 | 19054 ft | 215 kts | 169° |
| 2026-04-24 23:34 | -28.33507 | 152.96309 | 19063 ft | 214 kts | 168° |
| 2026-04-24 23:34 | -28.34983 | 152.96539 | 19060 ft | 213 kts | 169° |
| 2026-04-24 23:34 | -28.36460 | 152.96769 | 19063 ft | 214 kts | 169° |
| 2026-04-24 23:34 | -28.37927 | 152.97001 | 19145 ft | 211 kts | 169° |
| 2026-04-24 23:35 | -28.39367 | 152.97226 | 19248 ft | 207 kts | 169° |
| 2026-04-24 23:35 | -28.40781 | 152.97446 | 19363 ft | 203 kts | 167° |
| 2026-04-24 23:35 | -28.42187 | 152.97669 | 19378 ft | 206 kts | 169° |
| 2026-04-24 23:35 | -28.43607 | 152.97893 | 19381 ft | 207 kts | 169° |
| 2026-04-24 23:36 | -28.45044 | 152.98116 | 19398 ft | 210 kts | 169° |
| 2026-04-24 23:36 | -28.46491 | 152.98343 | 19402 ft | 211 kts | 167° |
| 2026-04-24 23:36 | -28.47947 | 152.98572 | 19404 ft | 211 kts | 168° |
| 2026-04-24 23:36 | -28.49401 | 152.98802 | 19402 ft | 211 kts | 169° |
| 2026-04-24 23:37 | -28.50842 | 152.99031 | 19402 ft | 212 kts | 169° |
| 2026-04-24 23:37 | -28.52304 | 152.99253 | 19408 ft | 212 kts | 169° |
| 2026-04-24 23:37 | -28.54756 | 152.99641 | 19404 ft | 212 kts | 169° |
| 2026-04-24 23:38 | -28.56224 | 152.99876 | 19411 ft | 213 kts | 168° |
| 2026-04-24 23:38 | -28.57697 | 153.00105 | 19410 ft | 214 kts | 168° |
| 2026-04-24 23:38 | -28.59169 | 153.00335 | 19411 ft | 213 kts | 169° |
| 2026-04-24 23:38 | -28.60618 | 153.00563 | 19409 ft | 213 kts | 168° |
| 2026-04-24 23:39 | -28.62081 | 153.00796 | 19412 ft | 212 kts | 169° |
| 2026-04-24 23:39 | -28.63548 | 153.01024 | 19407 ft | 213 kts | 169° |
| 2026-04-24 23:39 | -28.65015 | 153.01257 | 19408 ft | 213 kts | 169° |
| 2026-04-24 23:39 | -28.66486 | 153.01487 | 19407 ft | 213 kts | 169° |
| 2026-04-24 23:40 | -28.67958 | 153.01719 | 19406 ft | 214 kts | 169° |
| 2026-04-24 23:40 | -28.69435 | 153.01953 | 19405 ft | 215 kts | 169° |
| 2026-04-24 23:40 | -28.70916 | 153.02186 | 19406 ft | 215 kts | 169° |
| 2026-04-24 23:40 | -28.72398 | 153.02419 | 19407 ft | 215 kts | 169° |
| 2026-04-24 23:41 | -28.73878 | 153.02652 | 19407 ft | 215 kts | 169° |
| 2026-04-24 23:41 | -28.75362 | 153.02887 | 19408 ft | 215 kts | 169° |
| 2026-04-24 23:41 | -28.76846 | 153.03121 | 19410 ft | 215 kts | 169° |
| 2026-04-24 23:41 | -28.78332 | 153.03355 | 19411 ft | 215 kts | 169° |
| 2026-04-24 23:42 | -28.79816 | 153.03590 | 19411 ft | 215 kts | 169° |
| 2026-04-24 23:42 | -28.81284 | 153.03822 | 19411 ft | 215 kts | 169° |
| 2026-04-24 23:42 | -28.82769 | 153.04056 | 19411 ft | 215 kts | 169° |
| 2026-04-24 23:42 | -28.84256 | 153.04292 | 19411 ft | 216 kts | 169° |
| 2026-04-24 23:43 | -28.85742 | 153.04526 | 19412 ft | 216 kts | 169° |
| 2026-04-24 23:43 | -28.87232 | 153.04761 | 19412 ft | 216 kts | 169° |
| 2026-04-24 23:43 | -28.88732 | 153.04864 | 19411 ft | 217 kts | 174° |
| 2026-04-24 23:43 | -28.90240 | 153.04932 | 19411 ft | 216 kts | 174° |
| 2026-04-24 23:44 | -28.91743 | 153.05010 | 19408 ft | 216 kts | 174° |
| 2026-04-24 23:44 | -28.93246 | 153.05087 | 19403 ft | 216 kts | 173° |
| 2026-04-24 23:44 | -28.94753 | 153.05163 | 19403 ft | 216 kts | 173° |
| 2026-04-24 23:44 | -28.96258 | 153.05236 | 19403 ft | 216 kts | 173° |
| 2026-04-24 23:45 | -28.97761 | 153.05311 | 19406 ft | 216 kts | 173° |
| 2026-04-24 23:45 | -28.99247 | 153.05385 | 19406 ft | 216 kts | 173° |
| 2026-04-24 23:45 | -29.00751 | 153.05460 | 19407 ft | 217 kts | 173° |
| 2026-04-24 23:45 | -29.02262 | 153.05536 | 19406 ft | 217 kts | 173° |
| 2026-04-24 23:46 | -29.03766 | 153.05611 | 19403 ft | 217 kts | 173° |
| 2026-04-24 23:46 | -29.05273 | 153.05686 | 19405 ft | 216 kts | 173° |
| 2026-04-24 23:46 | -29.06781 | 153.05761 | 19405 ft | 217 kts | 173° |
| 2026-04-24 23:46 | -29.08291 | 153.05837 | 19405 ft | 217 kts | 173° |
| 2026-04-24 23:47 | -29.09799 | 153.05912 | 19407 ft | 217 kts | 173° |
| 2026-04-24 23:47 | -29.11288 | 153.05986 | 19408 ft | 217 kts | 174° |
| 2026-04-24 23:47 | -29.12799 | 153.06062 | 19407 ft | 217 kts | 173° |
| 2026-04-24 23:47 | -29.14303 | 153.06137 | 19407 ft | 217 kts | 173° |
| 2026-04-24 23:48 | -29.15810 | 153.06212 | 19405 ft | 217 kts | 173° |
| 2026-04-24 23:48 | -29.17315 | 153.06287 | 19405 ft | 216 kts | 173° |
| 2026-04-24 23:48 | -29.18821 | 153.06363 | 19404 ft | 217 kts | 173° |
| 2026-04-24 23:48 | -29.20324 | 153.06442 | 19402 ft | 216 kts | 173° |
| 2026-04-24 23:49 | -29.21825 | 153.06521 | 19403 ft | 216 kts | 173° |
| 2026-04-24 23:49 | -29.23329 | 153.06603 | 19403 ft | 216 kts | 173° |
| 2026-04-24 23:49 | -29.24828 | 153.06680 | 19403 ft | 216 kts | 173° |
| 2026-04-24 23:49 | -29.26330 | 153.06754 | 19402 ft | 216 kts | 173° |
| 2026-04-24 23:50 | -29.27830 | 153.06829 | 19402 ft | 215 kts | 173° |
| 2026-04-24 23:50 | -29.29307 | 153.06903 | 19402 ft | 215 kts | 173° |
| 2026-04-24 23:50 | -29.30808 | 153.06978 | 19404 ft | 215 kts | 173° |
| 2026-04-24 23:50 | -29.32302 | 153.07053 | 19405 ft | 215 kts | 173° |
| 2026-04-24 23:51 | -29.33798 | 153.07128 | 19404 ft | 215 kts | 173° |
| 2026-04-24 23:51 | -29.35287 | 153.07203 | 19410 ft | 214 kts | 173° |
| 2026-04-24 23:51 | -29.36776 | 153.07276 | 19410 ft | 214 kts | 173° |
| 2026-04-24 23:51 | -29.38266 | 153.07351 | 19411 ft | 215 kts | 173° |
| 2026-04-24 23:52 | -29.39761 | 153.07426 | 19412 ft | 215 kts | 173° |
| 2026-04-24 23:52 | -29.41253 | 153.07501 | 19415 ft | 215 kts | 173° |
| 2026-04-24 23:52 | -29.42752 | 153.07575 | 19415 ft | 215 kts | 173° |
| 2026-04-24 23:52 | -29.44249 | 153.07650 | 19416 ft | 215 kts | 173° |
| 2026-04-24 23:53 | -29.45726 | 153.07724 | 19409 ft | 215 kts | 173° |
| 2026-04-24 23:53 | -29.47237 | 153.07801 | 19262 ft | 220 kts | 173° |
| 2026-04-24 23:53 | -29.48758 | 153.07876 | 19027 ft | 217 kts | 173° |
| 2026-04-24 23:53 | -29.50259 | 153.07951 | 18793 ft | 215 kts | 173° |
| 2026-04-24 23:54 | -29.51747 | 153.08026 | 18543 ft | 213 kts | 173° |
| 2026-04-24 23:54 | -29.53230 | 153.08101 | 18273 ft | 212 kts | 173° |
| 2026-04-24 23:54 | -29.54701 | 153.08175 | 17999 ft | 211 kts | 173° |
| 2026-04-24 23:54 | -29.56165 | 153.08249 | 17748 ft | 210 kts | 173° |
| 2026-04-24 23:55 | -29.57622 | 153.08322 | 17483 ft | 209 kts | 173° |
| 2026-04-24 23:55 | -29.59073 | 153.08395 | 17225 ft | 208 kts | 172° |
| 2026-04-24 23:55 | -29.60520 | 153.08467 | 16968 ft | 207 kts | 172° |
| 2026-04-24 23:55 | -29.61959 | 153.08540 | 16716 ft | 206 kts | 172° |
| 2026-04-24 23:56 | -29.63393 | 153.08612 | 16464 ft | 206 kts | 172° |
| 2026-04-24 23:56 | -29.64822 | 153.08684 | 16214 ft | 205 kts | 172° |
| 2026-04-24 23:56 | -29.66243 | 153.08756 | 15966 ft | 204 kts | 172° |
| 2026-04-24 23:56 | -29.67661 | 153.08827 | 15720 ft | 203 kts | 172° |
| 2026-04-24 23:57 | -29.69053 | 153.08898 | 15480 ft | 203 kts | 172° |
| 2026-04-24 23:57 | -29.70461 | 153.08968 | 15238 ft | 202 kts | 172° |
| 2026-04-24 23:57 | -29.71865 | 153.09039 | 14994 ft | 201 kts | 172° |
| 2026-04-24 23:57 | -29.73264 | 153.09110 | 14755 ft | 201 kts | 172° |
| 2026-04-24 23:58 | -29.74661 | 153.09181 | 14519 ft | 202 kts | 172° |
| 2026-04-24 23:58 | -29.76076 | 153.09254 | 14287 ft | 205 kts | 172° |
| 2026-04-24 23:58 | -29.77510 | 153.09325 | 14036 ft | 206 kts | 172° |
| 2026-04-24 23:58 | -29.78949 | 153.09397 | 13776 ft | 207 kts | 172° |
| 2026-04-24 23:59 | -29.80387 | 153.09470 | 13519 ft | 207 kts | 172° |
| 2026-04-24 23:59 | -29.81828 | 153.09542 | 13266 ft | 206 kts | 172° |
| 2026-04-24 23:59 | -29.83240 | 153.09613 | 13014 ft | 205 kts | 172° |
| 2026-04-24 23:59 | -29.84667 | 153.09686 | 12758 ft | 204 kts | 172° |
| 2026-04-25 00:00 | -29.86085 | 153.09757 | 12506 ft | 203 kts | 172° |
| 2026-04-25 00:00 | -29.87498 | 153.09829 | 12253 ft | 202 kts | 172° |
| 2026-04-25 00:00 | -29.88900 | 153.09899 | 12006 ft | 201 kts | 172° |
| 2026-04-25 00:00 | -29.90297 | 153.09970 | 11757 ft | 200 kts | 172° |
| 2026-04-25 00:01 | -29.91684 | 153.10040 | 11513 ft | 199 kts | 172° |
| 2026-04-25 00:01 | -29.93065 | 153.10111 | 11274 ft | 198 kts | 172° |
| 2026-04-25 00:01 | -29.94440 | 153.10180 | 11057 ft | 197 kts | 172° |
| 2026-04-25 00:01 | -29.95797 | 153.10249 | 10845 ft | 198 kts | 172° |
| 2026-04-25 00:02 | -29.97171 | 153.10319 | 10625 ft | 197 kts | 172° |
| 2026-04-25 00:02 | -29.98539 | 153.10387 | 10408 ft | 196 kts | 172° |
| 2026-04-25 00:02 | -29.99907 | 153.10460 | 10176 ft | 197 kts | 171° |
| 2026-04-25 00:02 | -30.01272 | 153.10528 | 9940 ft | 196 kts | 172° |
| 2026-04-25 00:03 | -30.02634 | 153.10596 | 9724 ft | 196 kts | 172° |
| 2026-04-25 00:03 | -30.03990 | 153.10664 | 9492 ft | 195 kts | 172° |
| 2026-04-25 00:03 | -30.05341 | 153.10732 | 9262 ft | 194 kts | 172° |
| 2026-04-25 00:03 | -30.06683 | 153.10801 | 9031 ft | 192 kts | 172° |
| 2026-04-25 00:04 | -30.08017 | 153.10869 | 8797 ft | 191 kts | 172° |
| 2026-04-25 00:04 | -30.09346 | 153.10938 | 8573 ft | 191 kts | 172° |
| 2026-04-25 00:04 | -30.10666 | 153.11005 | 8347 ft | 189 kts | 172° |
| 2026-04-25 00:04 | -30.11981 | 153.11070 | 8123 ft | 188 kts | 172° |
| 2026-04-25 00:05 | -30.13285 | 153.11136 | 7912 ft | 187 kts | 173° |
| 2026-04-25 00:05 | -30.14583 | 153.11203 | 7688 ft | 186 kts | 173° |
| 2026-04-25 00:05 | -30.15873 | 153.11269 | 7467 ft | 185 kts | 173° |
| 2026-04-25 00:05 | -30.17160 | 153.11335 | 7251 ft | 185 kts | 173° |
| 2026-04-25 00:06 | -30.18444 | 153.11399 | 7033 ft | 184 kts | 173° |
| 2026-04-25 00:06 | -30.19719 | 153.11464 | 6816 ft | 183 kts | 173° |
| 2026-04-25 00:06 | -30.20985 | 153.11529 | 6585 ft | 182 kts | 173° |
| 2026-04-25 00:06 | -30.22227 | 153.11592 | 6358 ft | 180 kts | 173° |
| 2026-04-25 00:07 | -30.23490 | 153.11660 | 6126 ft | 179 kts | 172° |
| 2026-04-25 00:07 | -30.24715 | 153.11725 | 5887 ft | 178 kts | 174° |
| 2026-04-25 00:07 | -30.25951 | 153.11783 | 5640 ft | 178 kts | 173° |
| 2026-04-25 00:07 | -30.27197 | 153.11842 | 5386 ft | 179 kts | 174° |
| 2026-04-25 00:08 | -30.28427 | 153.11968 | 5136 ft | 177 kts | 169° |
| 2026-04-25 00:08 | -30.29637 | 153.12136 | 4987 ft | 171 kts | 169° |
| 2026-04-25 00:08 | -30.30790 | 153.12290 | 4980 ft | 164 kts | 169° |
| 2026-04-25 00:08 | -30.31917 | 153.12438 | 4974 ft | 161 kts | 171° |
| 2026-04-25 00:09 | -30.32997 | 153.12097 | 4971 ft | 170 kts | 213° |
| 2026-04-25 00:09 | -30.33643 | 153.10925 | 4974 ft | 178 kts | 242° |
| 2026-04-25 00:09 | -30.34093 | 153.09586 | 4973 ft | 180 kts | 252° |
| 2026-04-25 00:09 | -30.34050 | 153.08122 | 4976 ft | 183 kts | 272° |
| 2026-04-25 00:10 | -30.33768 | 153.06680 | 4975 ft | 189 kts | 298° |
| 2026-04-25 00:10 | -30.32776 | 153.05728 | 4976 ft | 188 kts | 343° |
| 2026-04-25 00:10 | -30.31520 | 153.05755 | 4979 ft | 181 kts | 27° |
| 2026-04-25 00:10 | -30.30648 | 153.06704 | 4987 ft | 171 kts | 70° |
| 2026-04-25 00:11 | -30.30520 | 153.08022 | 4993 ft | 165 kts | 98° |
| 2026-04-25 00:11 | -30.30599 | 153.08900 | 4991 ft | 165 kts | 99° |
| 2026-04-25 00:11 | -30.30763 | 153.10651 | 4991 ft | 162 kts | 99° |
| 2026-04-25 00:11 | -30.30871 | 153.11945 | 4991 ft | 161 kts | 96° |
| 2026-04-25 00:12 | -30.30836 | 153.13231 | 4989 ft | 163 kts | 90° |
| 2026-04-25 00:12 | -30.30779 | 153.14540 | 4987 ft | 163 kts | 90° |
| 2026-04-25 00:12 | -30.30406 | 153.15799 | 4987 ft | 169 kts | 69° |
| 2026-04-25 00:12 | -30.29936 | 153.17039 | 4974 ft | 169 kts | 72° |
| 2026-04-25 00:13 | -30.29446 | 153.18310 | 4853 ft | 176 kts | 70° |
| 2026-04-25 00:13 | -30.28922 | 153.19610 | 4734 ft | 179 kts | 69° |
| 2026-04-25 00:13 | -30.28389 | 153.20923 | 4611 ft | 180 kts | 70° |
| 2026-04-25 00:13 | -30.27859 | 153.22235 | 4493 ft | 180 kts | 70° |
| 2026-04-25 00:14 | -30.27327 | 153.23550 | 4370 ft | 179 kts | 70° |
| 2026-04-25 00:14 | -30.26813 | 153.24819 | 4235 ft | 174 kts | 70° |
| 2026-04-25 00:14 | -30.26311 | 153.26064 | 4049 ft | 169 kts | 70° |
| 2026-04-25 00:14 | -30.25663 | 153.27197 | 3806 ft | 176 kts | 45° |
| 2026-04-25 00:15 | -30.24488 | 153.27632 | 3535 ft | 185 kts | 1° |
| 2026-04-25 00:15 | -30.23314 | 153.27064 | 3254 ft | 187 kts | 317° |
| 2026-04-25 00:15 | -30.22709 | 153.25776 | 2997 ft | 182 kts | 275° |
| 2026-04-25 00:15 | -30.22939 | 153.24418 | 2749 ft | 170 kts | 232° |
| 2026-04-25 00:16 | -30.23807 | 153.23612 | 2526 ft | 153 kts | 203° |
| 2026-04-25 00:16 | -30.24561 | 153.22854 | 2456 ft | 136 kts | 223° |
| 2026-04-25 00:16 | -30.25161 | 153.22058 | 2253 ft | 127 kts | 223° |
| 2026-04-25 00:16 | -30.25711 | 153.21283 | 2070 ft | 122 kts | 223° |
| 2026-04-25 00:17 | -30.26249 | 153.20511 | 1861 ft | 124 kts | 225° |
| 2026-04-25 00:17 | -30.26777 | 153.19736 | 1650 ft | 121 kts | 224° |
| 2026-04-25 00:17 | -30.27286 | 153.18985 | 1482 ft | 115 kts | 226° |
| 2026-04-25 00:17 | -30.27780 | 153.18257 | 1342 ft | 116 kts | 226° |
| 2026-04-25 00:18 | -30.28292 | 153.17515 | 1129 ft | 120 kts | 223° |
| 2026-04-25 00:18 | -30.28800 | 153.16758 | 936 ft | 120 kts | 224° |
| 2026-04-25 00:18 | -30.29237 | 153.15991 | 809 ft | 105 kts | 233° |
| 2026-04-25 00:18 | -30.29603 | 153.15287 | 743 ft | 102 kts | 232° |
| 2026-04-25 00:19 | -30.29982 | 153.14607 | 610 ft | 100 kts | 230° |
| 2026-04-25 00:19 | -30.30458 | 153.14034 | 522 ft | 95 kts | 222° |
| 2026-04-25 00:19 | -30.30920 | 153.13531 | 474 ft | 92 kts | 218° |
| 2026-04-25 00:19 | -30.31408 | 153.13055 | 351 ft | 94 kts | 223° |
| 2026-04-25 00:20 | -30.31910 | 153.12562 | 208 ft | 93 kts | 221° |
| 2026-04-25 00:20 | -30.32395 | 153.12082 | 51 ft | 89 kts | 221° |
| 2026-04-25 00:20 | -30.32786 | 153.11695 | 15 ft | 56 kts | 221° |
| 2026-04-25 00:20 | -30.32988 | 153.11495 | 14 ft | 30 kts | 220° |
| 2026-04-25 00:21 | -30.33128 | 153.11355 | 16 ft | 19 kts | 229° |
| 2026-04-25 00:21 | -30.33076 | 153.11244 | 15 ft | 20 kts | 314° |
| 2026-04-25 00:21 | -30.32956 | 153.11279 | 16 ft | 27 kts | 34° |
| 2026-04-25 00:21 | -30.32788 | 153.11455 | 16 ft | 37 kts | 41° |
| 2026-04-25 00:22 | -30.32579 | 153.11660 | 17 ft | 40 kts | 41° |
| 2026-04-25 00:22 | -30.32406 | 153.11754 | 17 ft | 23 kts | 342° |
| 2026-04-25 00:22 | -30.32226 | 153.11813 | 17 ft | 31 kts | 19° |
| 2026-04-25 00:22 | -30.31999 | 153.11907 | 15 ft | 38 kts | 20° |
| 2026-04-25 00:23 | -30.31783 | 153.11995 | 14 ft | 29 kts | 21° |
| 2026-04-25 00:23 | -30.31652 | 153.12050 | 15 ft | 32 kts | 21° |
| 2026-04-25 00:23 | -30.31472 | 153.12126 | 15 ft | 18 kts | 19° |
| 2026-04-25 00:23 | -30.31433 | 153.12143 | 15 ft | 0 kts | 258° |